This is the latest recevied weather packets stored in our database for station/object 5B4APJ-13. If no packets are shown the sender has not sent any weather packets the latest 10 day(s).
| Time | Temp. | Humidity | Pressure | Rain* | Wind** | Luminosity | Snow |
|---|---|---|---|---|---|---|---|
| 1777815725 | 16.67° C | 56% | 1007.6 hPa | 0 mm | 3.58 m/s, 235° | 369 W/m² | - |
| 1777815425 | 16.67° C | 54% | 1007.6 hPa | 0 mm | 3.58 m/s, 239° | 471 W/m² | - |
| 1777815125 | 16.67° C | 55% | 1007.7 hPa | 0 mm | 4.92 m/s, 223° | 292 W/m² | - |
| 1777814826 | 17.22° C | 53% | 1007.6 hPa | 0 mm | 9.39 m/s, 248° | 249 W/m² | - |
| 1777814525 | 16.67° C | 57% | 1007.5 hPa | 0 mm | 2.68 m/s, 224° | 591 W/m² | - |
| 1777814225 | 17.22° C | 57% | 1007.4 hPa | 0 mm | 2.68 m/s, 226° | 256 W/m² | - |
| 1777813925 | 16.67° C | 59% | 1007.3 hPa | 0 mm | 5.36 m/s, 237° | 633 W/m² | - |
| 1777813625 | 16.11° C | 66% | 1007.2 hPa | 0 mm | 1.34 m/s, 231° | 745 W/m² | - |
| 1777813325 | 15.56° C | 67% | 1007.4 hPa | 0 mm | 1.34 m/s, 217° | 257 W/m² | - |
| 1777813027 | 15.56° C | 71% | 1007.3 hPa | 0 mm | 1.34 m/s, 187° | 280 W/m² | - |
| 1777812725 | 15° C | 72% | 1007.5 hPa | 0 mm | 2.68 m/s, 124° | 210 W/m² | - |
| 1777812425 | 15° C | 78% | 1007.4 hPa | 0 mm | 2.24 m/s, 238° | 181 W/m² | - |
| 1777812125 | 15° C | 88% | 1007.6 hPa | 0 mm | 0.45 m/s, 128° | 171 W/m² | - |
| 1777811826 | 14.44° C | 89% | 1007.5 hPa | 0.51 mm | 0.45 m/s, 261° | 199 W/m² | - |
| 1777811525 | 14.44° C | 89% | 1007.5 hPa | 0.76 mm | 0.45 m/s, 92° | 200 W/m² | - |
| 1777811225 | 14.44° C | 90% | 1007.4 hPa | 0.76 mm | 1.34 m/s, 106° | 179 W/m² | - |
| 1777810925 | 14.44° C | 90% | 1007.5 hPa | 0.76 mm | 0 m/s | 170 W/m² | - |
| 1777810625 | 13.89° C | 90% | 1007.8 hPa | 0.76 mm | 0.89 m/s, 291° | 146 W/m² | - |
| 1777810326 | 13.89° C | 90% | 1007.7 hPa | 0.76 mm | 1.79 m/s, 21° | 289 W/m² | - |
| 1777810025 | 14.44° C | 92% | 1007.5 hPa | 0.76 mm | 1.34 m/s, 287° | 229 W/m² | - |
| 1777809726 | 14.44° C | 91% | 1007.6 hPa | 0.76 mm | 0.89 m/s, 57° | 169 W/m² | - |
| 1777809425 | 14.44° C | 91% | 1007.9 hPa | 0.76 mm | 2.24 m/s, 61° | 203 W/m² | - |
| 1777809126 | 14.44° C | 91% | 1007.7 hPa | 0.76 mm | 1.34 m/s, 40° | 158 W/m² | - |
| 1777808825 | 14.44° C | 91% | 1007.8 hPa | 1.02 mm | 1.34 m/s, 302° | 194 W/m² | - |
| 1777808526 | 14.44° C | 90% | 1007.9 hPa | 0.76 mm | 0.45 m/s, 293° | 63 W/m² | - |
* Rain latest hour (hover to see other rain measurements)
** Current wind speed in m/s (hover to see current wind gust speed)